This is the latest recevied weather packets stored in our database for station/object SQ5LTL-2. If no packets are shown the sender has not sent any weather packets the latest 10 day(s).
| Time | Temp. | Humidity | Pressure | Rain* | Wind** | Luminosity | Snow |
|---|---|---|---|---|---|---|---|
| 1778100616 | 19.44° C | 61% | 1008 hPa | 0 mm | - | 0 W/m² | - |
| 1778100335 | 19.44° C | 61% | 1007.9 hPa | 0 mm | - | 0 W/m² | - |
| 1778100033 | 19.44° C | 62% | 1008 hPa | 0 mm | - | 0 W/m² | - |
| 1778099732 | 20° C | 60% | 1008 hPa | 0 mm | - | 0 W/m² | - |
| 1778099432 | 20° C | 58% | 1008.1 hPa | 0 mm | - | 0 W/m² | - |
| 1778099129 | 20° C | 58% | 1007.9 hPa | 0 mm | - | 0 W/m² | - |
| 1778098827 | 20° C | 57% | 1007.9 hPa | 0 mm | - | 0 W/m² | - |
| 1778098526 | 20° C | 56% | 1007.9 hPa | 0 mm | - | 0 W/m² | - |
| 1778098225 | 20° C | 56% | 1007.8 hPa | 0 mm | - | 0 W/m² | - |
| 1778097925 | 19.44° C | 57% | 1007.7 hPa | 0 mm | - | 0 W/m² | - |
| 1778097622 | 18.89° C | 59% | 1007.8 hPa | 0 mm | - | 0 W/m² | - |
| 1778097321 | 17.22° C | 66% | 1007.7 hPa | 0 mm | - | 0 W/m² | - |
| 1778097019 | 16.67° C | 67% | 1007.6 hPa | 0 mm | - | 0 W/m² | - |
| 1778096717 | 17.22° C | 66% | 1007.8 hPa | 0 mm | - | 0 W/m² | - |
| 1778096416 | 16.11° C | 70% | 1007.6 hPa | 0 mm | - | 0 W/m² | - |
| 1778096134 | 16.11° C | 70% | 1007.7 hPa | 0 mm | - | 0 W/m² | - |
| 1778095833 | 16.67° C | 69% | 1007.7 hPa | 0 mm | - | 0 W/m² | - |
| 1778095531 | 16.67° C | 69% | 1007.8 hPa | 0 mm | - | 0 W/m² | - |
| 1778095231 | 16.11° C | 70% | 1007.7 hPa | 0 mm | - | 0 W/m² | - |
| 1778094928 | 16.11° C | 71% | 1007.6 hPa | 0 mm | - | 0 W/m² | - |
| 1778094626 | 16.11° C | 71% | 1007.6 hPa | 0 mm | - | 0 W/m² | - |
| 1778094325 | 16.11° C | 71% | 1007.6 hPa | 0 mm | - | 0 W/m² | - |
| 1778094024 | 16.67° C | 68% | 1007.6 hPa | 0 mm | - | 0 W/m² | - |
| 1778093722 | 16.67° C | 67% | 1007.5 hPa | 0 mm | - | 0 W/m² | - |
| 1778093421 | 16.67° C | 67% | 1007.3 hPa | 0 mm | - | 0 W/m² | - |
* Rain latest hour (hover to see other rain measurements)
** Current wind speed in m/s (hover to see current wind gust speed)